Time;durP1;ratioP1;P1;durP2;ratioP2;P2;SDS_P1;SDS_P2;PMS_P1;PMS_P2;Temp;Humidity;BMP_temperature;BMP_pressure;BME280_temperature;BME280_humidity;BME280_pressure;Samples;Min_cycle;Max_cycle;Signal;HPM_P1;HPM_P2
2022/12/24 00:02:09;;;;;;;51.83;36.40;;;;;;;4.02;66.39;94791.50;5027902;28;20251;-64
2022/12/24 00:04:35;;;;;;;46.17;35.83;;;;;;;3.93;66.76;94785.22;5022632;28;20321;-64
2022/12/24 00:07:00;;;;;;;50.97;35.90;;;;;;;3.92;66.93;94786.16;5028036;28;20218;-64
2022/12/24 00:09:25;;;;;;;49.43;35.97;;;;;;;3.98;66.51;94790.06;5026213;28;20301;-65
2022/12/24 00:11:51;;;;;;;45.97;33.93;;;;;;;3.95;67.03;94793.72;5018526;28;20186;-64
2022/12/24 00:14:16;;;;;;;48.83;31.13;;;;;;;3.91;66.81;94789.72;5023288;28;20221;-64
2022/12/24 00:16:42;;;;;;;47.37;33.57;;;;;;;3.83;66.84;94792.06;5013778;28;20230;-64
2022/12/24 00:19:07;;;;;;;46.10;34.77;;;;;;;3.81;66.20;94782.72;5018599;28;20226;-65
2022/12/24 00:21:33;;;;;;;45.13;35.00;;;;;;;3.68;66.28;94788.84;5024133;28;20218;-65
2022/12/24 00:23:58;;;;;;;48.70;35.03;;;;;;;3.66;66.75;94787.31;5019004;28;20218;-65
2022/12/24 00:26:24;;;;;;;46.90;34.20;;;;;;;3.71;66.55;94788.63;5025193;28;20222;-66
2022/12/24 00:28:49;;;;;;;45.53;33.63;;;;;;;3.64;66.66;94784.00;5020226;28;20222;-67
2022/12/24 00:31:17;;;;;;;43.27;32.93;;;;;;;3.69;66.72;94785.31;5016732;28;20237;-67
2022/12/24 00:33:45;;;;;;;41.70;32.60;;;;;;;3.62;67.10;94776.31;5018593;28;20269;-68
2022/12/24 00:36:10;;;;;;;41.40;32.67;;;;;;;3.63;66.86;94780.56;5018758;28;20187;-66
2022/12/24 00:38:36;;;;;;;44.37;33.33;;;;;;;3.63;67.01;94783.16;5022750;28;20212;-66
2022/12/24 00:41:04;;;;;;;42.27;32.60;;;;;;;3.71;66.81;94793.81;5027525;28;20314;-66
2022/12/24 00:43:31;;;;;;;42.40;33.20;;;;;;;3.68;66.80;94798.44;5004150;28;20223;-66
2022/12/24 00:45:57;;;;;;;41.20;33.10;;;;;;;3.38;67.68;94799.78;5025509;28;20276;-66
2022/12/24 00:48:23;;;;;;;43.10;33.27;;;;;;;3.49;67.32;94783.38;5001588;28;20191;-66
2022/12/24 00:50:49;;;;;;;45.77;33.37;;;;;;;3.57;66.79;94788.84;5018919;28;20196;-66
2022/12/24 00:53:16;;;;;;;45.33;33.23;;;;;;;3.61;66.55;94792.03;5021073;28;20210;-66
2022/12/24 00:55:42;;;;;;;40.57;33.07;;;;;;;3.56;66.93;94786.38;5031237;28;20214;-65
2022/12/24 00:58:07;;;;;;;39.67;33.37;;;;;;;3.50;66.53;94791.06;5021657;28;20215;-66
2022/12/24 01:00:32;;;;;;;41.77;32.80;;;;;;;3.56;66.98;94789.78;5012612;28;20229;-65
2022/12/24 01:02:58;;;;;;;45.20;34.50;;;;;;;3.49;67.19;94792.00;5026940;28;20203;-66
2022/12/24 01:05:23;;;;;;;42.57;31.67;;;;;;;3.58;67.05;94800.88;5020468;28;20236;-66
2022/12/24 01:07:49;;;;;;;41.30;31.70;;;;;;;3.54;67.36;94800.28;5028579;28;20226;-66
2022/12/24 01:10:17;;;;;;;43.10;32.37;;;;;;;3.51;67.65;94784.94;5028578;28;20226;-66
2022/12/24 01:12:44;;;;;;;45.03;33.93;;;;;;;3.61;67.13;94789.41;5035149;28;20284;-65
2022/12/24 01:15:10;;;;;;;45.13;36.33;;;;;;;3.47;67.06;94796.47;5021092;28;20193;-65
2022/12/24 01:17:36;;;;;;;47.07;35.80;;;;;;;3.43;67.28;94799.44;5016135;28;20205;-65
2022/12/24 01:20:05;;;;;;;49.60;39.10;;;;;;;3.25;68.48;94799.03;5028564;28;20312;-64
2022/12/24 01:22:30;;;;;;;49.70;38.43;;;;;;;3.36;68.22;94801.66;5023998;28;20298;-65
2022/12/24 01:24:56;;;;;;;48.67;37.10;;;;;;;3.30;67.46;94794.31;5025874;28;20321;-67
2022/12/24 01:27:21;;;;;;;49.47;37.90;;;;;;;3.33;67.24;94786.28;5030235;28;20190;-65
2022/12/24 01:29:46;;;;;;;44.63;34.93;;;;;;;3.35;66.89;94781.81;5025241;28;20237;-66
2022/12/24 01:32:12;;;;;;;44.03;36.17;;;;;;;3.28;66.50;94785.78;5014160;28;20218;-66
2022/12/24 01:34:37;;;;;;;44.57;33.60;;;;;;;3.18;66.93;94782.22;5031463;28;20300;-65
2022/12/24 01:37:03;;;;;;;45.57;35.00;;;;;;;3.09;67.13;94787.13;5051241;28;20217;-65
2022/12/24 01:39:28;;;;;;;44.43;35.50;;;;;;;3.17;67.23;94793.56;5031673;28;20230;-66
2022/12/24 01:44:42;;;;;;;45.07;35.50;;;;;;;3.25;66.96;94793.81;5041241;28;20233;-66
2022/12/24 01:47:16;;;;;;;46.13;34.80;;;;;;;3.31;66.57;94793.38;5020848;28;20244;-65
2022/12/24 01:49:49;;;;;;;45.03;34.33;;;;;;;3.35;66.59;94805.19;5026243;28;20218;-65
2022/12/24 01:52:27;;;;;;;37.03;31.40;;;;;;;3.19;66.53;94796.88;5025158;28;20226;-66
2022/12/24 01:55:02;;;;;;;41.80;33.43;;;;;;;3.14;67.03;94791.19;5004242;28;20308;-66
2022/12/24 01:57:42;;;;;;;42.10;32.10;;;;;;;3.11;67.36;94805.22;5016407;28;20233;-66
2022/12/24 02:00:11;;;;;;;45.50;32.53;;;;;;;3.19;67.10;94799.47;5027008;28;20210;-66
2022/12/24 02:02:39;;;;;;;47.07;34.87;;;;;;;3.22;66.68;94799.25;5026154;28;20221;-66
2022/12/24 02:05:10;;;;;;;43.10;32.63;;;;;;;3.22;66.98;94787.09;5027716;28;20234;-66
2022/12/24 02:07:35;;;;;;;40.97;31.63;;;;;;;3.27;67.28;94779.78;5034487;28;20233;-66
2022/12/24 02:10:03;;;;;;;41.73;31.80;;;;;;;3.18;67.23;94779.63;5055161;28;20225;-66
2022/12/24 02:12:33;;;;;;;41.37;30.50;;;;;;;3.17;67.20;94771.00;5046758;28;20221;-66
2022/12/24 02:14:59;;;;;;;38.37;29.27;;;;;;;2.97;67.73;94782.84;5042920;28;20197;-66
2022/12/24 02:17:51;;;;;;;35.13;27.80;;;;;;;2.99;68.29;94777.53;5025010;28;20225;-66
2022/12/24 02:20:16;;;;;;;39.87;30.87;;;;;;;3.05;68.02;94783.13;5017162;28;20230;-66
2022/12/24 02:23:26;;;;;;;42.27;31.90;;;;;;;3.12;67.65;94780.06;5020063;28;20226;-66
2022/12/24 02:25:54;;;;;;;39.10;30.30;;;;;;;2.92;67.85;94794.53;5002738;28;20274;-66
2022/12/24 02:28:32;;;;;;;38.27;29.03;;;;;;;2.86;68.16;94788.84;5012598;28;20226;-66
2022/12/24 02:31:07;;;;;;;39.37;30.50;;;;;;;2.69;68.85;94790.97;5013597;28;20225;-65
2022/12/24 02:33:41;;;;;;;38.50;30.13;;;;;;;2.87;67.83;94790.47;5007412;28;20316;-65
2022/12/24 02:36:27;;;;;;;38.77;29.60;;;;;;;2.84;67.72;94795.06;5004838;28;20301;-66
2022/12/24 02:39:07;;;;;;;36.43;28.63;;;;;;;2.94;67.71;94785.69;5010156;28;20191;-66
2022/12/24 02:44:26;;;;;;;37.70;30.37;;;;;;;2.93;67.86;94783.19;5017712;28;20237;-66
2022/12/24 02:46:52;;;;;;;39.33;30.07;;;;;;;2.80;67.94;94785.84;5027047;28;20226;-66
2022/12/24 02:49:18;;;;;;;39.47;31.20;;;;;;;2.74;68.32;94781.09;5009426;28;20226;-66
2022/12/24 02:51:43;;;;;;;37.90;31.07;;;;;;;2.79;68.39;94771.19;5003134;28;20323;-66
2022/12/24 02:54:10;;;;;;;39.67;31.07;;;;;;;2.84;67.58;94769.09;5011251;28;20233;-66
2022/12/24 02:57:05;;;;;;;44.03;30.67;;;;;;;2.92;67.60;94758.16;5009561;28;20198;-66
2022/12/24 02:59:52;;;;;;;40.00;29.50;;;;;;;2.95;67.64;94758.75;5011283;28;20285;-66
2022/12/24 03:02:43;;;;;;;37.03;29.33;;;;;;;2.90;67.44;94767.84;5036332;28;20237;-66
2022/12/24 03:05:41;;;;;;;40.80;28.37;;;;;;;2.77;67.77;94762.69;5046768;28;20225;-66
2022/12/24 03:08:13;;;;;;;38.33;29.73;;;;;;;2.73;67.37;94764.69;5050230;28;20225;-66
2022/12/24 03:10:38;;;;;;;41.10;28.00;;;;;;;2.63;67.90;94779.25;5046416;28;20226;-66
2022/12/24 03:13:09;;;;;;;40.60;28.17;;;;;;;2.58;68.17;94769.19;5043373;28;20221;-66
2022/12/24 03:15:37;;;;;;;39.03;30.50;;;;;;;2.67;68.22;94766.88;5043229;28;20256;-66
2022/12/24 03:18:06;;;;;;;33.47;28.60;;;;;;;2.45;68.43;94763.22;5048799;28;20189;-66
2022/12/24 03:20:38;;;;;;;37.03;28.97;;;;;;;2.29;68.68;94767.84;5055242;28;20227;-66
2022/12/24 03:23:03;;;;;;;33.00;27.73;;;;;;;2.34;68.69;94763.97;5056151;28;20243;-66
2022/12/24 03:25:32;;;;;;;36.57;29.37;;;;;;;2.42;68.33;94769.44;5036845;28;20226;-65
2022/12/24 03:28:01;;;;;;;36.50;28.93;;;;;;;2.45;67.95;94765.00;5053424;28;20221;-66
2022/12/24 03:30:26;;;;;;;33.63;27.73;;;;;;;2.42;68.38;94769.44;5042009;28;20214;-66
2022/12/24 03:32:51;;;;;;;35.33;27.47;;;;;;;2.37;68.48;94771.53;5046293;28;20236;-66
2022/12/24 03:35:17;;;;;;;35.03;28.37;;;;;;;2.43;68.34;94775.47;5042318;28;20238;-66
2022/12/24 03:37:43;;;;;;;32.63;26.93;;;;;;;2.59;67.99;94770.88;5048694;28;20236;-66
2022/12/24 03:40:08;;;;;;;35.97;27.57;;;;;;;2.61;68.04;94763.78;5039494;28;20222;-66
2022/12/24 03:42:34;;;;;;;34.53;28.17;;;;;;;2.57;67.87;94772.75;5041681;28;20217;-66
2022/12/24 03:45:00;;;;;;;33.03;25.90;;;;;;;2.54;68.04;94769.50;5038160;28;20182;-66
2022/12/24 03:47:25;;;;;;;33.50;25.63;;;;;;;2.60;67.76;94771.69;5048827;28;20213;-66
2022/12/24 03:49:51;;;;;;;30.47;23.53;;;;;;;2.59;68.39;94773.47;5040450;28;20253;-66
2022/12/24 03:52:16;;;;;;;32.63;24.33;;;;;;;2.52;68.78;94767.03;5040659;28;20344;-66
2022/12/24 03:54:42;;;;;;;34.37;25.93;;;;;;;2.61;68.58;94770.75;5048458;28;20226;-66
2022/12/24 03:57:07;;;;;;;32.00;25.50;;;;;;;2.57;68.14;94774.50;5044296;28;20252;-66
2022/12/24 03:59:33;;;;;;;29.73;25.60;;;;;;;2.56;67.96;94771.06;5046253;28;20185;-66
2022/12/24 04:01:58;;;;;;;33.53;25.27;;;;;;;2.55;68.07;94769.41;5027918;28;20252;-66
2022/12/24 04:04:24;;;;;;;33.70;24.73;;;;;;;2.58;67.78;94779.56;5029762;28;20233;-66
2022/12/24 04:06:49;;;;;;;35.37;25.07;;;;;;;2.65;67.49;94780.00;5038360;28;20248;-65
2022/12/24 04:09:15;;;;;;;36.20;28.10;;;;;;;2.28;68.52;94781.75;5041556;28;20189;-65
2022/12/24 04:11:40;;;;;;;35.67;26.43;;;;;;;2.44;68.37;94787.53;5023769;28;20308;-66
2022/12/24 04:14:06;;;;;;;35.10;28.90;;;;;;;1.92;69.79;94793.72;5027933;28;20223;-66
2022/12/24 04:16:31;;;;;;;33.33;27.60;;;;;;;1.98;69.51;94799.34;5014421;28;20223;-67
2022/12/24 04:18:57;;;;;;;35.20;27.90;;;;;;;2.14;68.77;94801.69;5020549;28;20227;-65
2022/12/24 04:21:22;;;;;;;32.47;27.60;;;;;;;2.04;69.31;94797.25;5023831;28;20262;-65
2022/12/24 04:23:48;;;;;;;32.20;26.30;;;;;;;2.15;68.80;94790.38;5031318;28;20272;-65
2022/12/24 04:26:14;;;;;;;28.60;25.13;;;;;;;2.19;68.61;94789.25;5045132;28;20275;-65
2022/12/24 04:28:40;;;;;;;33.77;26.40;;;;;;;2.32;68.63;94799.56;5055745;28;20222;-66
2022/12/24 04:31:16;;;;;;;31.57;24.87;;;;;;;2.24;70.15;94806.25;5033211;28;20241;-66
2022/12/24 04:33:42;;;;;;;33.30;26.30;;;;;;;2.32;70.97;94807.34;5039680;28;20249;-66
2022/12/24 04:36:12;;;;;;;30.90;26.13;;;;;;;2.37;70.58;94801.84;5036961;28;20196;-66
2022/12/24 04:38:37;;;;;;;32.50;25.93;;;;;;;2.52;69.60;94813.78;5045484;28;20193;-65
2022/12/24 04:41:09;;;;;;;28.87;25.03;;;;;;;2.57;69.21;94816.03;5041559;28;20228;-65
2022/12/24 04:43:35;;;;;;;27.57;24.60;;;;;;;2.54;69.06;94822.28;5048214;28;20248;-66
2022/12/24 04:46:13;;;;;;;29.73;24.30;;;;;;;2.43;69.67;94820.44;5047805;28;20245;-66
2022/12/24 04:48:40;;;;;;;29.27;25.03;;;;;;;2.57;69.04;94823.84;5038966;28;20224;-66
2022/12/24 04:51:07;;;;;;;27.67;23.80;;;;;;;2.43;69.23;94819.59;5041730;28;20185;-65
2022/12/24 04:53:34;;;;;;;25.30;22.30;;;;;;;2.43;69.18;94811.81;5038087;28;20225;-66
2022/12/24 04:56:00;;;;;;;25.03;22.43;;;;;;;2.52;69.23;94810.34;5049164;28;20240;-66
2022/12/24 04:58:26;;;;;;;26.33;22.70;;;;;;;2.54;69.66;94809.31;5040110;28;20216;-66
2022/12/24 05:00:52;;;;;;;27.43;22.13;;;;;;;2.52;69.78;94808.56;5044886;28;20301;-66
2022/12/24 05:03:18;;;;;;;27.50;23.03;;;;;;;2.49;69.55;94806.19;5023602;28;20273;-67
2022/12/24 05:05:44;;;;;;;24.80;21.97;;;;;;;2.54;69.30;94803.25;5039341;28;20197;-67
2022/12/24 05:08:09;;;;;;;27.07;22.73;;;;;;;2.56;68.99;94797.03;5037499;28;20283;-67
2022/12/24 05:10:36;;;;;;;25.43;21.80;;;;;;;2.62;68.89;94801.81;5026063;28;20246;-66
2022/12/24 05:13:02;;;;;;;28.07;23.27;;;;;;;2.66;69.17;94797.22;5023853;28;20223;-66
2022/12/24 05:15:28;;;;;;;27.93;22.50;;;;;;;2.39;70.60;94795.63;5025705;28;20198;-66
2022/12/24 05:17:53;;;;;;;26.07;22.23;;;;;;;2.37;70.65;94783.69;5043332;28;20335;-66
2022/12/24 05:20:19;;;;;;;23.57;21.07;;;;;;;2.49;69.88;94780.25;5020474;28;20233;-66
2022/12/24 05:28:23;;;;;;;30.93;22.00;;;;;;;2.50;69.11;94781.91;5019426;28;20258;-66
2022/12/24 05:30:49;;;;;;;24.17;21.40;;;;;;;2.46;69.55;94785.66;5030010;28;20218;-66
2022/12/24 05:33:14;;;;;;;27.90;22.50;;;;;;;2.50;69.73;94789.69;5045823;28;20254;-66
2022/12/24 05:36:05;;;;;;;23.97;21.17;;;;;;;2.40;69.91;94797.28;5043671;28;20257;-66
2022/12/24 05:38:31;;;;;;;27.63;22.47;;;;;;;2.40;70.04;94793.84;5028937;28;20253;-67
2022/12/24 05:40:56;;;;;;;25.87;21.27;;;;;;;2.54;69.47;94798.91;5028119;28;20306;-66
2022/12/24 05:43:21;;;;;;;27.20;22.80;;;;;;;2.36;69.78;94784.63;5026295;28;20226;-66
2022/12/24 05:45:47;;;;;;;26.00;22.73;;;;;;;2.49;69.62;94784.63;5020680;28;20226;-67
2022/12/24 05:48:12;;;;;;;25.93;21.67;;;;;;;2.50;69.47;94787.09;5019954;28;20229;-66
2022/12/24 05:50:39;;;;;;;26.40;21.43;;;;;;;2.48;69.28;94788.94;5032476;28;20304;-67
2022/12/24 05:53:04;;;;;;;26.70;22.30;;;;;;;2.54;69.11;94782.50;5021770;28;20255;-66
2022/12/24 05:55:30;;;;;;;27.17;22.33;;;;;;;2.50;68.97;94779.28;5023738;28;20254;-67
2022/12/24 05:57:55;;;;;;;26.60;23.37;;;;;;;2.39;69.39;94769.69;5027997;28;20241;-66
2022/12/24 06:00:21;;;;;;;27.93;22.80;;;;;;;2.47;69.60;94776.09;5021154;28;20186;-67
2022/12/24 06:02:46;;;;;;;26.63;21.57;;;;;;;2.64;68.83;94784.31;5028333;28;20182;-66
2022/12/24 06:05:12;;;;;;;25.13;22.43;;;;;;;2.62;68.81;94788.81;5023185;28;20237;-66
2022/12/24 06:07:37;;;;;;;26.80;22.03;;;;;;;2.53;69.10;94784.25;5025805;28;20245;-66
2022/12/24 06:10:04;;;;;;;24.87;21.33;;;;;;;2.59;68.83;94790.78;5032418;28;20271;-66
2022/12/24 06:12:29;;;;;;;24.30;21.77;;;;;;;2.59;68.14;94789.03;5025207;28;20364;-67
2022/12/24 06:14:54;;;;;;;24.10;20.40;;;;;;;2.55;68.17;94790.19;5032212;28;20193;-66
2022/12/24 06:17:20;;;;;;;26.97;21.37;;;;;;;2.55;68.29;94803.16;5026962;28;20226;-67
2022/12/24 06:19:51;;;;;;;23.70;20.97;;;;;;;2.12;69.59;94811.34;5030770;28;20231;-66
2022/12/24 06:22:17;;;;;;;24.80;20.70;;;;;;;2.40;69.22;94807.66;5026461;28;20222;-66
2022/12/24 06:24:42;;;;;;;25.17;20.23;;;;;;;2.57;69.18;94803.88;5021334;28;20230;-66
2022/12/24 06:27:08;;;;;;;29.00;20.93;;;;;;;2.66;68.49;94807.59;5027318;28;20187;-66
2022/12/24 06:29:33;;;;;;;24.93;21.03;;;;;;;2.73;68.44;94798.44;5025233;28;20221;-66
2022/12/24 06:31:58;;;;;;;26.47;21.47;;;;;;;2.73;68.64;94811.41;5021489;28;20214;-67
2022/12/24 06:34:24;;;;;;;26.27;21.30;;;;;;;2.79;68.33;94810.16;5036475;28;20238;-67
2022/12/24 06:36:49;;;;;;;25.77;21.70;;;;;;;2.80;68.64;94817.00;5044180;28;20244;-66
2022/12/24 06:39:15;;;;;;;27.37;22.20;;;;;;;2.78;68.40;94816.25;5033327;28;20239;-66
2022/12/24 06:41:40;;;;;;;26.23;22.27;;;;;;;2.81;68.56;94826.47;5026734;28;20222;-67
2022/12/24 06:44:06;;;;;;;28.60;23.70;;;;;;;2.83;68.54;94834.94;5016465;28;20235;-67
2022/12/24 06:46:31;;;;;;;28.17;23.93;;;;;;;2.94;68.41;94831.56;5034837;28;20465;-67
2022/12/24 06:48:56;;;;;;;27.07;22.80;;;;;;;2.97;67.96;94832.22;5031652;28;20206;-67
2022/12/24 06:51:22;;;;;;;26.67;22.20;;;;;;;3.07;67.61;94837.56;5024022;28;20225;-67
2022/12/24 06:53:51;;;;;;;29.73;23.30;;;;;;;3.09;67.19;94831.31;5029081;28;20218;-67
2022/12/24 06:56:19;;;;;;;26.43;23.07;;;;;;;3.08;67.63;94837.44;5029705;28;20282;-67
2022/12/24 06:58:44;;;;;;;29.80;25.13;;;;;;;3.16;67.13;94831.72;5024050;28;20230;-66
2022/12/24 07:01:13;;;;;;;41.83;34.67;;;;;;;3.28;66.81;94832.56;5017495;28;20194;-67
2022/12/24 07:03:38;;;;;;;39.33;32.33;;;;;;;3.19;66.82;94835.84;5028212;28;20206;-66
2022/12/24 07:06:04;;;;;;;37.57;31.93;;;;;;;3.43;66.53;94838.44;5026989;28;20236;-66
2022/12/24 07:08:35;;;;;;;46.27;36.77;;;;;;;3.57;66.08;94832.22;5033237;28;20245;-66
2022/12/24 07:11:01;;;;;;;51.73;41.37;;;;;;;3.56;66.24;94836.59;5057022;28;20225;-67
2022/12/24 07:13:26;;;;;;;55.13;45.07;;;;;;;3.59;66.05;94838.94;5058520;28;20275;-67
2022/12/24 07:16:02;;;;;;;69.87;53.97;;;;;;;3.68;65.49;94835.66;5045914;28;20194;-67
2022/12/24 07:18:29;;;;;;;57.63;45.73;;;;;;;3.82;65.11;94834.63;5051768;28;20221;-67
2022/12/24 07:20:54;;;;;;;58.30;43.87;;;;;;;3.83;65.08;94836.28;5038612;28;20226;-67
2022/12/24 07:23:19;;;;;;;61.90;46.57;;;;;;;3.91;65.05;94827.91;5041281;28;20237;-67
2022/12/24 07:25:45;;;;;;;63.13;50.27;;;;;;;3.95;64.86;94830.16;5036049;28;20312;-67
2022/12/24 07:28:10;;;;;;;67.43;52.23;;;;;;;4.00;64.83;94831.59;5031088;28;20336;-67
2022/12/24 07:30:36;;;;;;;61.93;47.20;;;;;;;4.04;64.81;94833.84;5028872;28;20222;-67
2022/12/24 07:33:01;;;;;;;67.87;52.53;;;;;;;4.02;64.68;94833.13;5022206;28;20222;-67
2022/12/24 07:35:27;;;;;;;68.67;54.03;;;;;;;3.93;65.12;94832.06;5028866;28;20313;-67
2022/12/24 07:37:53;;;;;;;56.43;45.97;;;;;;;3.97;65.14;94827.44;5033005;28;20265;-67
2022/12/24 07:40:18;;;;;;;49.53;39.67;;;;;;;4.00;65.26;94836.78;5042345;28;20207;-67
2022/12/24 07:42:44;;;;;;;52.53;43.47;;;;;;;4.02;65.28;94843.53;5045176;28;20190;-67
2022/12/24 07:45:09;;;;;;;44.47;36.93;;;;;;;3.91;65.77;94836.53;5021337;28;20215;-66
2022/12/24 07:47:35;;;;;;;44.07;36.03;;;;;;;4.09;65.86;94838.69;5027889;28;20229;-67
2022/12/24 07:50:02;;;;;;;47.03;36.90;;;;;;;4.14;65.67;94845.22;5018801;28;20328;-67
2022/12/24 07:52:27;;;;;;;56.43;43.47;;;;;;;4.24;65.31;94836.69;5029806;28;20230;-66
2022/12/24 07:54:53;;;;;;;53.43;39.73;;;;;;;4.37;65.09;94851.25;5035934;28;20194;-67
2022/12/24 07:57:18;;;;;;;45.20;37.37;;;;;;;4.46;65.08;94854.09;5050060;28;20229;-67
2022/12/24 07:59:44;;;;;;;49.83;37.03;;;;;;;4.46;64.63;94859.28;5024400;28;20284;-67
2022/12/24 08:02:13;;;;;;;43.67;33.53;;;;;;;4.49;65.06;94854.69;5029002;28;20297;-66
2022/12/24 08:04:38;;;;;;;40.07;28.73;;;;;;;4.60;64.92;94854.69;5030062;28;20261;-66
2022/12/24 08:07:05;;;;;;;40.57;31.20;;;;;;;4.71;64.94;94861.66;5029054;28;20182;-66
2022/12/24 08:09:35;;;;;;;45.63;36.07;;;;;;;4.85;63.98;94869.22;5044857;28;20181;-66
2022/12/24 08:12:02;;;;;;;53.20;37.57;;;;;;;4.76;64.34;94863.91;5044854;28;20222;-67
2022/12/24 08:14:29;;;;;;;47.07;36.53;;;;;;;4.89;64.41;94872.38;5048993;28;20298;-67
2022/12/24 08:16:54;;;;;;;46.23;36.33;;;;;;;4.84;64.77;94880.59;5040872;28;20304;-66
2022/12/24 08:19:20;;;;;;;47.93;36.50;;;;;;;4.73;65.11;94880.59;5034790;28;20260;-67
2022/12/24 08:21:45;;;;;;;49.10;34.40;;;;;;;4.82;64.69;94872.06;5048223;28;20212;-67
2022/12/24 08:24:10;;;;;;;43.87;33.00;;;;;;;4.91;65.17;94880.09;5036175;28;20222;-67
2022/12/24 08:26:36;;;;;;;43.27;33.80;;;;;;;4.96;64.71;94876.19;5037465;28;20222;-67
2022/12/24 08:29:02;;;;;;;41.40;32.07;;;;;;;4.93;65.08;94873.81;5041786;28;20307;-67
2022/12/24 08:31:28;;;;;;;40.47;31.33;;;;;;;4.88;64.58;94860.31;5048574;28;20366;-66
2022/12/24 08:33:54;;;;;;;42.03;31.07;;;;;;;4.90;65.43;94873.25;5036785;28;20200;-66
2022/12/24 08:36:19;;;;;;;35.63;29.77;;;;;;;5.02;65.19;94864.44;5026202;28;20226;-66
2022/12/24 08:38:45;;;;;;;34.43;27.63;;;;;;;5.13;64.96;94856.59;5022007;28;20253;-67
2022/12/24 08:41:10;;;;;;;40.33;28.50;;;;;;;5.22;65.06;94847.22;5027793;28;20340;-67
2022/12/24 08:43:36;;;;;;;39.07;29.13;;;;;;;5.36;64.40;94852.16;5027214;28;20275;-67
2022/12/24 08:46:03;;;;;;;38.10;27.57;;;;;;;5.35;64.53;94847.06;5017734;28;20182;-66
2022/12/24 08:48:29;;;;;;;35.17;25.87;;;;;;;5.38;64.89;94834.59;5017639;28;20237;-66
2022/12/24 08:50:55;;;;;;;31.77;24.87;;;;;;;5.51;64.42;94839.66;5021382;28;20292;-67
2022/12/24 08:53:20;;;;;;;34.87;25.50;;;;;;;5.58;64.46;94846.00;5023532;28;20221;-67
2022/12/24 08:55:47;;;;;;;31.63;25.77;;;;;;;5.70;64.65;94845.00;5028831;28;20233;-67
2022/12/24 08:58:12;;;;;;;34.57;25.67;;;;;;;5.76;64.24;94851.50;5024786;28;20183;-67
2022/12/24 09:00:38;;;;;;;30.60;24.63;;;;;;;5.80;64.37;94857.28;5025866;28;20193;-67
2022/12/24 09:03:03;;;;;;;35.27;27.17;;;;;;;5.72;64.51;94870.94;5030020;28;20219;-66
2022/12/24 09:05:29;;;;;;;30.47;26.17;;;;;;;5.59;64.59;94865.94;5025241;28;20214;-66
2022/12/24 09:07:54;;;;;;;35.87;25.90;;;;;;;5.62;65.10;94865.69;5032691;28;20289;-65
2022/12/24 09:10:20;;;;;;;34.23;25.33;;;;;;;5.69;64.80;94851.19;5027367;28;20230;-66
2022/12/24 09:12:46;;;;;;;30.63;24.67;;;;;;;5.72;64.77;94853.53;5016053;28;20269;-65
2022/12/24 09:15:13;;;;;;;30.57;24.30;;;;;;;5.82;64.87;94845.75;5041107;28;20213;-66
2022/12/24 09:17:38;;;;;;;30.13;24.10;;;;;;;5.79;64.94;94850.41;5025069;28;20225;-66
2022/12/24 09:20:05;;;;;;;31.93;24.47;;;;;;;5.77;65.34;94853.16;5036352;28;20210;-66
2022/12/24 09:22:33;;;;;;;28.80;22.80;;;;;;;5.63;66.39;94851.69;5042836;28;20210;-66
2022/12/24 09:24:58;;;;;;;25.80;21.27;;;;;;;5.77;66.10;94847.09;5031249;28;20202;-67
2022/12/24 09:27:24;;;;;;;25.47;22.40;;;;;;;6.00;65.94;94834.81;5024334;28;20272;-67
2022/12/24 09:29:49;;;;;;;29.37;23.83;;;;;;;6.02;65.61;94848.56;5033164;28;20218;-68
2022/12/24 09:32:14;;;;;;;28.40;22.30;;;;;;;5.97;65.80;94847.13;5034012;28;20218;-68
2022/12/24 09:34:40;;;;;;;29.10;21.93;;;;;;;5.94;66.11;94847.41;5026141;28;20237;-66
2022/12/24 09:37:05;;;;;;;28.53;21.30;;;;;;;6.09;65.65;94847.06;5048785;28;20206;-66
2022/12/24 09:39:31;;;;;;;28.17;20.47;;;;;;;6.25;65.21;94836.16;5043853;28;20178;-66
2022/12/24 09:41:56;;;;;;;28.37;21.67;;;;;;;6.43;65.37;94839.00;5044391;28;20280;-66
2022/12/24 09:44:44;;;;;;;27.00;22.30;;;;;;;6.47;64.28;94841.22;5042228;28;20241;-66
2022/12/24 09:47:21;;;;;;;26.63;23.33;;;;;;;6.56;63.81;94843.03;5042474;28;20222;-66
2022/12/24 09:49:51;;;;;;;39.87;32.20;;;;;;;6.60;63.78;94835.75;5049499;28;20225;-67
2022/12/24 09:52:28;;;;;;;52.43;39.93;;;;;;;6.62;62.33;94831.25;5047751;28;20265;-67
2022/12/24 09:55:02;;;;;;;51.07;41.63;;;;;;;6.60;62.13;94830.53;5046141;28;20178;-67
2022/12/24 09:57:33;;;;;;;56.37;41.17;;;;;;;6.71;62.23;94837.44;5034351;28;20229;-67
2022/12/24 09:59:59;;;;;;;55.13;43.50;;;;;;;6.84;61.53;94838.91;5045454;28;20225;-68
2022/12/24 10:02:24;;;;;;;62.27;47.03;;;;;;;6.84;61.96;94830.19;5039710;28;20218;-68
2022/12/24 10:04:50;;;;;;;67.07;49.23;;;;;;;6.80;61.80;94840.09;5041165;28;20226;-67
2022/12/24 10:07:24;;;;;;;68.43;51.10;;;;;;;6.86;61.24;94846.59;5039168;28;20296;-67
2022/12/24 10:10:30;;;;;;;72.50;54.07;;;;;;;6.68;61.67;94843.75;5048055;28;20190;-67
2022/12/24 10:13:29;;;;;;;71.40;49.77;;;;;;;6.57;62.26;94841.25;5042617;28;20236;-67
2022/12/24 10:16:16;;;;;;;77.27;54.83;;;;;;;6.71;62.07;94840.06;5042191;28;20252;-66
2022/12/24 10:18:50;;;;;;;69.07;51.30;;;;;;;6.69;61.69;94834.16;5056408;28;20280;-67
2022/12/24 10:21:23;;;;;;;72.57;53.60;;;;;;;6.30;62.52;94831.38;5036439;28;20226;-67
2022/12/24 10:24:00;;;;;;;75.87;52.07;;;;;;;6.54;61.95;94818.84;5044486;28;20213;-67
2022/12/24 10:26:33;;;;;;;65.23;47.33;;;;;;;6.78;61.46;94823.72;5053925;28;20240;-67
2022/12/24 10:29:11;;;;;;;62.37;47.43;;;;;;;6.75;61.19;94825.78;5042467;28;20203;-67
2022/12/24 10:31:53;;;;;;;65.50;48.90;;;;;;;6.87;61.15;94832.56;5052480;28;20221;-67
2022/12/24 10:34:25;;;;;;;58.33;44.50;;;;;;;6.97;60.48;94828.16;5040188;28;20273;-67
2022/12/24 10:36:51;;;;;;;62.87;45.87;;;;;;;6.73;61.44;94830.31;5038858;28;20222;-67
2022/12/24 10:39:20;;;;;;;52.23;40.20;;;;;;;7.06;60.66;94827.38;5049357;28;20201;-66
2022/12/24 10:41:52;;;;;;;53.07;41.47;;;;;;;7.25;60.21;94823.97;5048896;28;20248;-67
2022/12/24 10:44:21;;;;;;;55.47;39.50;;;;;;;7.00;61.18;94824.47;5047825;28;20237;-67
2022/12/24 10:46:47;;;;;;;46.90;39.50;;;;;;;7.20;60.23;94817.50;5044017;28;20193;-67
2022/12/24 10:49:44;;;;;;;48.93;38.20;;;;;;;7.18;60.34;94808.94;5051357;28;20217;-66
2022/12/24 10:52:16;;;;;;;52.80;38.90;;;;;;;7.19;59.85;94805.34;5049182;28;20201;-67
2022/12/24 10:55:07;;;;;;;48.13;37.97;;;;;;;7.35;59.68;94816.13;5043390;28;20236;-67
2022/12/24 10:57:33;;;;;;;46.20;36.33;;;;;;;7.33;59.67;94820.66;5039307;28;20190;-67
2022/12/24 10:59:59;;;;;;;49.70;36.10;;;;;;;7.36;59.87;94811.72;5047446;28;20197;-67
2022/12/24 11:02:31;;;;;;;47.60;36.90;;;;;;;7.04;60.56;94812.78;5050072;28;20189;-67
2022/12/24 11:04:58;;;;;;;49.80;38.07;;;;;;;6.98;60.81;94814.16;5048760;28;20524;-67
2022/12/24 11:07:24;;;;;;;46.77;35.10;;;;;;;7.14;60.94;94829.31;5053735;28;20193;-67
2022/12/24 11:09:59;;;;;;;44.40;34.30;;;;;;;7.03;60.87;94822.41;5042590;28;20224;-67
2022/12/24 11:12:37;;;;;;;46.97;35.10;;;;;;;7.05;61.24;94830.94;5042762;28;20185;-67
2022/12/24 11:15:14;;;;;;;46.53;35.63;;;;;;;7.16;60.97;94829.16;5044462;28;20195;-67
2022/12/24 11:17:40;;;;;;;47.77;35.70;;;;;;;7.22;60.65;94815.56;5049921;28;20186;-66
2022/12/24 11:20:16;;;;;;;46.10;33.73;;;;;;;7.32;60.58;94811.16;5042920;28;20197;-67
2022/12/24 11:22:41;;;;;;;42.63;35.13;;;;;;;7.36;60.73;94804.69;5040462;28;20277;-66
2022/12/24 11:25:19;;;;;;;46.47;34.67;;;;;;;7.43;60.24;94808.44;5048486;28;20300;-67
2022/12/24 11:27:50;;;;;;;45.57;34.60;;;;;;;7.55;60.26;94803.03;5023606;28;20193;-66
2022/12/24 11:30:15;;;;;;;43.13;34.27;;;;;;;7.67;60.12;94801.91;5044715;28;20240;-66
2022/12/24 11:32:48;;;;;;;46.07;33.00;;;;;;;7.69;59.92;94813.91;5047667;28;20189;-67
2022/12/24 11:35:22;;;;;;;40.40;31.83;;;;;;;7.94;59.59;94807.28;5049062;28;20253;-67
2022/12/24 11:38:08;;;;;;;43.53;34.27;;;;;;;8.14;58.73;94822.94;5039140;28;20295;-67
2022/12/24 11:40:36;;;;;;;44.87;33.87;;;;;;;8.28;58.12;94813.78;5047481;28;20271;-67
2022/12/24 11:43:04;;;;;;;45.47;34.53;;;;;;;8.51;57.73;94814.31;5050528;28;20265;-67